sensor_id;sensor_type;location;lat;lon;timestamp;P1;durP1;ratioP1;P2;durP2;ratioP2
61413;SDS011;47279;52.426;10.488;2022-09-09T00:00:51;1.80;;;1.70;;
61413;SDS011;47279;52.426;10.488;2022-09-09T00:03:21;1.73;;;1.63;;
61413;SDS011;47279;52.426;10.488;2022-09-09T00:06:12;2.05;;;1.70;;
61413;SDS011;47279;52.426;10.488;2022-09-09T00:08:39;1.65;;;1.55;;
61413;SDS011;47279;52.426;10.488;2022-09-09T00:11:08;2.10;;;1.90;;
61413;SDS011;47279;52.426;10.488;2022-09-09T00:13:48;1.88;;;1.77;;
61413;SDS011;47279;52.426;10.488;2022-09-09T00:16:27;1.65;;;1.55;;
61413;SDS011;47279;52.426;10.488;2022-09-09T00:21:33;2.03;;;1.83;;
61413;SDS011;47279;52.426;10.488;2022-09-09T00:23:59;1.85;;;1.63;;
61413;SDS011;47279;52.426;10.488;2022-09-09T00:28:56;1.50;;;1.40;;
61413;SDS011;47279;52.426;10.488;2022-09-09T00:31:27;1.80;;;1.70;;
61413;SDS011;47279;52.426;10.488;2022-09-09T00:33:53;1.55;;;1.45;;
61413;SDS011;47279;52.426;10.488;2022-09-09T00:36:22;1.60;;;1.50;;
61413;SDS011;47279;52.426;10.488;2022-09-09T00:38:56;1.60;;;1.50;;
61413;SDS011;47279;52.426;10.488;2022-09-09T00:44:13;1.50;;;1.40;;
61413;SDS011;47279;52.426;10.488;2022-09-09T00:46:47;2.00;;;1.90;;
61413;SDS011;47279;52.426;10.488;2022-09-09T00:49:19;1.90;;;1.80;;
61413;SDS011;47279;52.426;10.488;2022-09-09T00:52:03;1.77;;;1.67;;
61413;SDS011;47279;52.426;10.488;2022-09-09T00:59:35;1.70;;;1.60;;
61413;SDS011;47279;52.426;10.488;2022-09-09T01:02:21;1.70;;;1.60;;
61413;SDS011;47279;52.426;10.488;2022-09-09T01:04:49;1.80;;;1.70;;
61413;SDS011;47279;52.426;10.488;2022-09-09T01:07:18;1.58;;;1.48;;
61413;SDS011;47279;52.426;10.488;2022-09-09T01:10:21;1.58;;;1.48;;
61413;SDS011;47279;52.426;10.488;2022-09-09T01:12:41;1.65;;;1.55;;
61413;SDS011;47279;52.426;10.488;2022-09-09T01:15:30;1.63;;;1.42;;
61413;SDS011;47279;52.426;10.488;2022-09-09T01:18:00;1.63;;;1.52;;
61413;SDS011;47279;52.426;10.488;2022-09-09T01:20:32;1.63;;;1.52;;
61413;SDS011;47279;52.426;10.488;2022-09-09T01:28:30;1.52;;;1.42;;
61413;SDS011;47279;52.426;10.488;2022-09-09T01:30:57;1.40;;;1.30;;
61413;SDS011;47279;52.426;10.488;2022-09-09T01:33:23;1.70;;;1.60;;
61413;SDS011;47279;52.426;10.488;2022-09-09T01:38:38;1.60;;;1.50;;
61413;SDS011;47279;52.426;10.488;2022-09-09T01:41:04;1.80;;;1.70;;
61413;SDS011;47279;52.426;10.488;2022-09-09T01:43:30;1.55;;;1.45;;
61413;SDS011;47279;52.426;10.488;2022-09-09T01:45:58;1.58;;;1.48;;
61413;SDS011;47279;52.426;10.488;2022-09-09T01:48:24;1.50;;;1.40;;
61413;SDS011;47279;52.426;10.488;2022-09-09T01:50:50;1.50;;;1.40;;
61413;SDS011;47279;52.426;10.488;2022-09-09T01:53:17;1.60;;;1.50;;
61413;SDS011;47279;52.426;10.488;2022-09-09T01:56:27;1.55;;;1.45;;
61413;SDS011;47279;52.426;10.488;2022-09-09T02:03:31;1.67;;;1.58;;
61413;SDS011;47279;52.426;10.488;2022-09-09T02:08:46;1.67;;;1.58;;
61413;SDS011;47279;52.426;10.488;2022-09-09T02:11:14;1.25;;;1.15;;
61413;SDS011;47279;52.426;10.488;2022-09-09T02:13:40;1.55;;;1.45;;
61413;SDS011;47279;52.426;10.488;2022-09-09T02:16:11;1.35;;;1.25;;
61413;SDS011;47279;52.426;10.488;2022-09-09T02:18:40;1.45;;;1.30;;
61413;SDS011;47279;52.426;10.488;2022-09-09T02:21:07;1.30;;;1.20;;
61413;SDS011;47279;52.426;10.488;2022-09-09T02:23:33;1.67;;;1.58;;
61413;SDS011;47279;52.426;10.488;2022-09-09T02:26:00;1.40;;;1.30;;
61413;SDS011;47279;52.426;10.488;2022-09-09T02:28:29;1.70;;;1.60;;
61413;SDS011;47279;52.426;10.488;2022-09-09T02:30:57;1.58;;;1.48;;
61413;SDS011;47279;52.426;10.488;2022-09-09T02:33:24;1.55;;;1.45;;
61413;SDS011;47279;52.426;10.488;2022-09-09T02:35:52;1.40;;;1.30;;
61413;SDS011;47279;52.426;10.488;2022-09-09T02:38:18;1.40;;;1.30;;
61413;SDS011;47279;52.426;10.488;2022-09-09T02:40:45;1.73;;;1.60;;
61413;SDS011;47279;52.426;10.488;2022-09-09T02:43:13;1.60;;;1.50;;
61413;SDS011;47279;52.426;10.488;2022-09-09T02:45:42;1.60;;;1.42;;
61413;SDS011;47279;52.426;10.488;2022-09-09T02:48:14;1.65;;;1.25;;
61413;SDS011;47279;52.426;10.488;2022-09-09T02:58:10;1.80;;;1.40;;
61413;SDS011;47279;52.426;10.488;2022-09-09T03:00:37;1.50;;;1.40;;
61413;SDS011;47279;52.426;10.488;2022-09-09T03:03:04;1.60;;;1.50;;
61413;SDS011;47279;52.426;10.488;2022-09-09T03:05:30;1.40;;;1.30;;
61413;SDS011;47279;52.426;10.488;2022-09-09T03:07:57;1.63;;;1.33;;
61413;SDS011;47279;52.426;10.488;2022-09-09T03:10:23;1.75;;;1.20;;
61413;SDS011;47279;52.426;10.488;2022-09-09T03:12:49;1.70;;;1.60;;
61413;SDS011;47279;52.426;10.488;2022-09-09T03:15:15;1.40;;;1.30;;
61413;SDS011;47279;52.426;10.488;2022-09-09T03:17:41;2.28;;;1.35;;
61413;SDS011;47279;52.426;10.488;2022-09-09T03:20:07;1.70;;;1.30;;
61413;SDS011;47279;52.426;10.488;2022-09-09T03:22:34;1.45;;;1.25;;
61413;SDS011;47279;52.426;10.488;2022-09-09T03:25:00;1.75;;;1.40;;
61413;SDS011;47279;52.426;10.488;2022-09-09T03:27:27;2.53;;;1.80;;
61413;SDS011;47279;52.426;10.488;2022-09-09T03:29:54;1.65;;;1.30;;
61413;SDS011;47279;52.426;10.488;2022-09-09T03:32:20;2.83;;;1.50;;
61413;SDS011;47279;52.426;10.488;2022-09-09T03:34:47;2.00;;;1.67;;
61413;SDS011;47279;52.426;10.488;2022-09-09T03:37:15;2.47;;;1.70;;
61413;SDS011;47279;52.426;10.488;2022-09-09T03:39:41;3.20;;;1.58;;
61413;SDS011;47279;52.426;10.488;2022-09-09T03:42:07;2.05;;;1.85;;
61413;SDS011;47279;52.426;10.488;2022-09-09T03:44:33;2.13;;;1.60;;
61413;SDS011;47279;52.426;10.488;2022-09-09T03:46:59;2.58;;;1.77;;
61413;SDS011;47279;52.426;10.488;2022-09-09T03:49:26;2.88;;;1.70;;
61413;SDS011;47279;52.426;10.488;2022-09-09T03:51:53;4.03;;;2.03;;
61413;SDS011;47279;52.426;10.488;2022-09-09T03:54:19;3.13;;;2.10;;
61413;SDS011;47279;52.426;10.488;2022-09-09T03:56:45;3.20;;;2.33;;
61413;SDS011;47279;52.426;10.488;2022-09-09T03:59:11;4.03;;;2.08;;
61413;SDS011;47279;52.426;10.488;2022-09-09T04:01:39;5.88;;;2.17;;
61413;SDS011;47279;52.426;10.488;2022-09-09T04:04:05;3.20;;;2.00;;
61413;SDS011;47279;52.426;10.488;2022-09-09T04:06:31;4.15;;;2.05;;
61413;SDS011;47279;52.426;10.488;2022-09-09T04:08:56;4.25;;;1.92;;
61413;SDS011;47279;52.426;10.488;2022-09-09T04:11:22;4.63;;;1.88;;
61413;SDS011;47279;52.426;10.488;2022-09-09T04:13:48;3.35;;;2.05;;
61413;SDS011;47279;52.426;10.488;2022-09-09T04:16:14;2.50;;;2.13;;
61413;SDS011;47279;52.426;10.488;2022-09-09T04:18:41;3.92;;;2.20;;
61413;SDS011;47279;52.426;10.488;2022-09-09T04:21:08;5.68;;;2.00;;
61413;SDS011;47279;52.426;10.488;2022-09-09T04:23:35;3.75;;;1.95;;
61413;SDS011;47279;52.426;10.488;2022-09-09T04:26:01;3.42;;;1.85;;
61413;SDS011;47279;52.426;10.488;2022-09-09T04:28:29;2.58;;;2.05;;
61413;SDS011;47279;52.426;10.488;2022-09-09T04:30:55;3.78;;;1.95;;
61413;SDS011;47279;52.426;10.488;2022-09-09T04:33:24;3.95;;;1.80;;
61413;SDS011;47279;52.426;10.488;2022-09-09T04:35:51;3.75;;;1.77;;
61413;SDS011;47279;52.426;10.488;2022-09-09T04:38:19;4.07;;;1.92;;
61413;SDS011;47279;52.426;10.488;2022-09-09T04:40:47;4.53;;;2.15;;
61413;SDS011;47279;52.426;10.488;2022-09-09T04:43:13;3.75;;;1.80;;
61413;SDS011;47279;52.426;10.488;2022-09-09T04:45:39;3.92;;;2.20;;
61413;SDS011;47279;52.426;10.488;2022-09-09T04:48:06;3.00;;;1.88;;
61413;SDS011;47279;52.426;10.488;2022-09-09T04:50:32;3.53;;;1.90;;
61413;SDS011;47279;52.426;10.488;2022-09-09T04:53:01;2.95;;;1.67;;
61413;SDS011;47279;52.426;10.488;2022-09-09T04:55:27;3.15;;;1.90;;
61413;SDS011;47279;52.426;10.488;2022-09-09T04:57:53;2.03;;;1.65;;
61413;SDS011;47279;52.426;10.488;2022-09-09T05:00:19;3.78;;;2.10;;
61413;SDS011;47279;52.426;10.488;2022-09-09T05:02:45;4.10;;;1.63;;
61413;SDS011;47279;52.426;10.488;2022-09-09T05:05:12;3.88;;;1.88;;
61413;SDS011;47279;52.426;10.488;2022-09-09T05:07:38;3.80;;;1.75;;
61413;SDS011;47279;52.426;10.488;2022-09-09T05:10:04;3.13;;;1.58;;
61413;SDS011;47279;52.426;10.488;2022-09-09T05:12:30;3.38;;;2.38;;
61413;SDS011;47279;52.426;10.488;2022-09-09T05:14:56;3.63;;;2.03;;
61413;SDS011;47279;52.426;10.488;2022-09-09T05:17:23;2.05;;;1.75;;
61413;SDS011;47279;52.426;10.488;2022-09-09T05:19:49;1.75;;;1.48;;
61413;SDS011;47279;52.426;10.488;2022-09-09T05:22:18;3.28;;;1.95;;
61413;SDS011;47279;52.426;10.488;2022-09-09T05:24:45;2.80;;;1.63;;
61413;SDS011;47279;52.426;10.488;2022-09-09T05:27:11;2.35;;;1.95;;
61413;SDS011;47279;52.426;10.488;2022-09-09T05:29:37;2.83;;;2.00;;
61413;SDS011;47279;52.426;10.488;2022-09-09T05:32:04;3.90;;;2.38;;
61413;SDS011;47279;52.426;10.488;2022-09-09T05:34:30;2.83;;;2.10;;
61413;SDS011;47279;52.426;10.488;2022-09-09T05:36:55;3.35;;;1.70;;
61413;SDS011;47279;52.426;10.488;2022-09-09T05:39:21;2.67;;;1.80;;
61413;SDS011;47279;52.426;10.488;2022-09-09T05:41:47;2.85;;;1.77;;
61413;SDS011;47279;52.426;10.488;2022-09-09T05:44:13;2.00;;;1.80;;
61413;SDS011;47279;52.426;10.488;2022-09-09T05:46:39;3.63;;;1.80;;
61413;SDS011;47279;52.426;10.488;2022-09-09T05:49:05;3.78;;;2.00;;
61413;SDS011;47279;52.426;10.488;2022-09-09T05:51:31;3.50;;;1.75;;
61413;SDS011;47279;52.426;10.488;2022-09-09T05:53:57;2.13;;;1.45;;
61413;SDS011;47279;52.426;10.488;2022-09-09T05:56:24;2.03;;;1.40;;
61413;SDS011;47279;52.426;10.488;2022-09-09T05:58:51;2.35;;;1.95;;
61413;SDS011;47279;52.426;10.488;2022-09-09T06:01:19;3.65;;;1.88;;
61413;SDS011;47279;52.426;10.488;2022-09-09T06:03:46;2.90;;;1.75;;
61413;SDS011;47279;52.426;10.488;2022-09-09T06:06:14;3.03;;;1.88;;
61413;SDS011;47279;52.426;10.488;2022-09-09T06:08:41;2.22;;;1.80;;
61413;SDS011;47279;52.426;10.488;2022-09-09T06:11:19;2.03;;;1.60;;
61413;SDS011;47279;52.426;10.488;2022-09-09T06:13:45;2.08;;;1.50;;
61413;SDS011;47279;52.426;10.488;2022-09-09T06:16:13;2.47;;;1.70;;
61413;SDS011;47279;52.426;10.488;2022-09-09T06:18:40;3.25;;;2.05;;
61413;SDS011;47279;52.426;10.488;2022-09-09T06:21:07;1.58;;;1.48;;
61413;SDS011;47279;52.426;10.488;2022-09-09T06:23:33;2.42;;;1.65;;
61413;SDS011;47279;52.426;10.488;2022-09-09T06:28:30;2.33;;;2.00;;
61413;SDS011;47279;52.426;10.488;2022-09-09T06:31:03;2.05;;;1.48;;
61413;SDS011;47279;52.426;10.488;2022-09-09T06:33:34;2.42;;;1.73;;
61413;SDS011;47279;52.426;10.488;2022-09-09T06:36:00;2.05;;;1.48;;
61413;SDS011;47279;52.426;10.488;2022-09-09T06:38:27;2.35;;;1.70;;
61413;SDS011;47279;52.426;10.488;2022-09-09T06:40:53;2.67;;;1.67;;
61413;SDS011;47279;52.426;10.488;2022-09-09T06:43:20;3.75;;;1.80;;
61413;SDS011;47279;52.426;10.488;2022-09-09T06:45:56;2.25;;;1.30;;
61413;SDS011;47279;52.426;10.488;2022-09-09T06:48:22;2.95;;;1.65;;
61413;SDS011;47279;52.426;10.488;2022-09-09T06:50:50;2.92;;;1.80;;
61413;SDS011;47279;52.426;10.488;2022-09-09T06:53:17;2.13;;;1.67;;
61413;SDS011;47279;52.426;10.488;2022-09-09T06:55:44;2.35;;;1.35;;
61413;SDS011;47279;52.426;10.488;2022-09-09T06:58:10;2.30;;;1.50;;
61413;SDS011;47279;52.426;10.488;2022-09-09T07:00:36;2.00;;;1.48;;
61413;SDS011;47279;52.426;10.488;2022-09-09T07:03:05;1.85;;;1.50;;
61413;SDS011;47279;52.426;10.488;2022-09-09T07:05:31;2.35;;;1.35;;
61413;SDS011;47279;52.426;10.488;2022-09-09T07:07:57;2.17;;;1.40;;
61413;SDS011;47279;52.426;10.488;2022-09-09T07:10:23;1.30;;;1.20;;
61413;SDS011;47279;52.426;10.488;2022-09-09T07:12:52;1.75;;;1.40;;
61413;SDS011;47279;52.426;10.488;2022-09-09T07:15:19;2.47;;;1.35;;
61413;SDS011;47279;52.426;10.488;2022-09-09T07:17:47;1.42;;;1.10;;
61413;SDS011;47279;52.426;10.488;2022-09-09T07:20:13;1.88;;;1.17;;
61413;SDS011;47279;52.426;10.488;2022-09-09T07:22:40;1.83;;;1.35;;
61413;SDS011;47279;52.426;10.488;2022-09-09T07:25:06;1.73;;;1.58;;
61413;SDS011;47279;52.426;10.488;2022-09-09T07:27:32;1.70;;;1.50;;
61413;SDS011;47279;52.426;10.488;2022-09-09T07:29:58;2.53;;;1.52;;
61413;SDS011;47279;52.426;10.488;2022-09-09T07:32:24;1.60;;;1.33;;
61413;SDS011;47279;52.426;10.488;2022-09-09T07:34:55;2.03;;;1.50;;
61413;SDS011;47279;52.426;10.488;2022-09-09T07:37:23;2.35;;;1.63;;
61413;SDS011;47279;52.426;10.488;2022-09-09T07:39:49;1.90;;;1.35;;
61413;SDS011;47279;52.426;10.488;2022-09-09T07:42:16;1.95;;;1.38;;
61413;SDS011;47279;52.426;10.488;2022-09-09T07:44:41;1.48;;;1.33;;
61413;SDS011;47279;52.426;10.488;2022-09-09T07:47:07;2.65;;;1.55;;
61413;SDS011;47279;52.426;10.488;2022-09-09T07:49:33;2.35;;;1.50;;
61413;SDS011;47279;52.426;10.488;2022-09-09T07:51:59;2.35;;;1.30;;
61413;SDS011;47279;52.426;10.488;2022-09-09T07:54:25;1.80;;;1.60;;
61413;SDS011;47279;52.426;10.488;2022-09-09T07:56:51;1.40;;;1.30;;
61413;SDS011;47279;52.426;10.488;2022-09-09T07:59:18;1.88;;;1.40;;
61413;SDS011;47279;52.426;10.488;2022-09-09T08:01:48;1.48;;;1.10;;
61413;SDS011;47279;52.426;10.488;2022-09-09T08:04:17;1.85;;;1.30;;
61413;SDS011;47279;52.426;10.488;2022-09-09T08:06:45;1.92;;;1.33;;
61413;SDS011;47279;52.426;10.488;2022-09-09T08:09:12;2.25;;;1.60;;
61413;SDS011;47279;52.426;10.488;2022-09-09T08:11:38;2.35;;;1.27;;
61413;SDS011;47279;52.426;10.488;2022-09-09T08:14:06;1.67;;;1.30;;
61413;SDS011;47279;52.426;10.488;2022-09-09T08:16:37;1.77;;;1.42;;
61413;SDS011;47279;52.426;10.488;2022-09-09T08:19:04;2.25;;;1.38;;
61413;SDS011;47279;52.426;10.488;2022-09-09T08:21:32;1.33;;;1.23;;
61413;SDS011;47279;52.426;10.488;2022-09-09T08:23:59;1.98;;;1.30;;
61413;SDS011;47279;52.426;10.488;2022-09-09T08:26:30;1.70;;;1.30;;
61413;SDS011;47279;52.426;10.488;2022-09-09T08:28:57;1.13;;;1.00;;
61413;SDS011;47279;52.426;10.488;2022-09-09T08:31:27;1.65;;;1.48;;
61413;SDS011;47279;52.426;10.488;2022-09-09T08:33:53;1.25;;;1.10;;
61413;SDS011;47279;52.426;10.488;2022-09-09T08:36:20;1.42;;;1.10;;
61413;SDS011;47279;52.426;10.488;2022-09-09T08:38:47;1.77;;;1.17;;
61413;SDS011;47279;52.426;10.488;2022-09-09T08:41:28;1.45;;;1.30;;
61413;SDS011;47279;52.426;10.488;2022-09-09T08:55:15;1.50;;;1.20;;
61413;SDS011;47279;52.426;10.488;2022-09-09T08:57:46;1.60;;;1.05;;
61413;SDS011;47279;52.426;10.488;2022-09-09T09:00:13;1.63;;;1.23;;
61413;SDS011;47279;52.426;10.488;2022-09-09T09:07:59;1.48;;;1.20;;
61413;SDS011;47279;52.426;10.488;2022-09-09T09:10:40;0.95;;;0.93;;
61413;SDS011;47279;52.426;10.488;2022-09-09T09:13:16;1.67;;;1.08;;
61413;SDS011;47279;52.426;10.488;2022-09-09T09:15:43;1.23;;;1.13;;
61413;SDS011;47279;52.426;10.488;2022-09-09T09:18:10;1.55;;;1.20;;
61413;SDS011;47279;52.426;10.488;2022-09-09T09:20:49;1.23;;;1.10;;
61413;SDS011;47279;52.426;10.488;2022-09-09T09:23:23;2.13;;;1.23;;
61413;SDS011;47279;52.426;10.488;2022-09-09T09:25:50;1.80;;;1.27;;
61413;SDS011;47279;52.426;10.488;2022-09-09T09:28:18;1.65;;;1.30;;
61413;SDS011;47279;52.426;10.488;2022-09-09T09:30:55;1.20;;;1.10;;
61413;SDS011;47279;52.426;10.488;2022-09-09T09:35:51;1.45;;;1.10;;
61413;SDS011;47279;52.426;10.488;2022-09-09T09:40:48;2.50;;;1.10;;
61413;SDS011;47279;52.426;10.488;2022-09-09T09:43:18;1.23;;;1.00;;
61413;SDS011;47279;52.426;10.488;2022-09-09T09:48:11;1.77;;;1.20;;
61413;SDS011;47279;52.426;10.488;2022-09-09T09:53:21;1.38;;;1.00;;
61413;SDS011;47279;52.426;10.488;2022-09-09T09:58:20;1.10;;;1.00;;
61413;SDS011;47279;52.426;10.488;2022-09-09T10:00:47;1.60;;;1.10;;
61413;SDS011;47279;52.426;10.488;2022-09-09T10:03:30;1.50;;;1.33;;
61413;SDS011;47279;52.426;10.488;2022-09-09T10:05:56;2.00;;;1.40;;
61413;SDS011;47279;52.426;10.488;2022-09-09T10:08:26;1.30;;;1.15;;
61413;SDS011;47279;52.426;10.488;2022-09-09T10:10:56;1.08;;;0.98;;
61413;SDS011;47279;52.426;10.488;2022-09-09T10:13:36;1.30;;;1.00;;
61413;SDS011;47279;52.426;10.488;2022-09-09T10:28:54;1.98;;;1.17;;
61413;SDS011;47279;52.426;10.488;2022-09-09T10:34:06;1.02;;;0.93;;
61413;SDS011;47279;52.426;10.488;2022-09-09T10:36:38;1.60;;;1.00;;
61413;SDS011;47279;52.426;10.488;2022-09-09T10:39:22;1.55;;;1.00;;
61413;SDS011;47279;52.426;10.488;2022-09-09T10:42:03;1.23;;;1.10;;
61413;SDS011;47279;52.426;10.488;2022-09-09T10:47:08;1.25;;;1.00;;
61413;SDS011;47279;52.426;10.488;2022-09-09T10:49:48;1.95;;;1.20;;
61413;SDS011;47279;52.426;10.488;2022-09-09T10:54:58;1.23;;;1.10;;
61413;SDS011;47279;52.426;10.488;2022-09-09T10:57:28;1.38;;;1.17;;
61413;SDS011;47279;52.426;10.488;2022-09-09T10:59:57;2.10;;;1.30;;
61413;SDS011;47279;52.426;10.488;2022-09-09T11:02:28;1.75;;;1.20;;
61413;SDS011;47279;52.426;10.488;2022-09-09T11:07:28;2.42;;;1.05;;
61413;SDS011;47279;52.426;10.488;2022-09-09T11:09:59;1.80;;;1.13;;
61413;SDS011;47279;52.426;10.488;2022-09-09T11:15:04;1.45;;;1.00;;
61413;SDS011;47279;52.426;10.488;2022-09-09T11:17:42;1.02;;;0.93;;
61413;SDS011;47279;52.426;10.488;2022-09-09T11:22:39;2.00;;;1.02;;
61413;SDS011;47279;52.426;10.488;2022-09-09T11:25:18;1.10;;;1.00;;
61413;SDS011;47279;52.426;10.488;2022-09-09T11:35:42;1.17;;;1.08;;
61413;SDS011;47279;52.426;10.488;2022-09-09T11:40:36;1.13;;;0.90;;
61413;SDS011;47279;52.426;10.488;2022-09-09T11:43:09;0.90;;;0.85;;
61413;SDS011;47279;52.426;10.488;2022-09-09T11:45:37;0.90;;;0.80;;
61413;SDS011;47279;52.426;10.488;2022-09-09T11:48:04;1.10;;;1.00;;
61413;SDS011;47279;52.426;10.488;2022-09-09T11:50:34;1.20;;;0.90;;
61413;SDS011;47279;52.426;10.488;2022-09-09T11:55:39;1.20;;;1.00;;
61413;SDS011;47279;52.426;10.488;2022-09-09T11:58:14;1.00;;;0.90;;
61413;SDS011;47279;52.426;10.488;2022-09-09T12:00:45;1.48;;;1.02;;
61413;SDS011;47279;52.426;10.488;2022-09-09T12:05:56;1.10;;;1.00;;
61413;SDS011;47279;52.426;10.488;2022-09-09T12:08:26;0.93;;;0.82;;
61413;SDS011;47279;52.426;10.488;2022-09-09T12:13:22;1.20;;;1.08;;
61413;SDS011;47279;52.426;10.488;2022-09-09T12:15:49;1.27;;;1.00;;
61413;SDS011;47279;52.426;10.488;2022-09-09T12:21:07;1.52;;;1.20;;
61413;SDS011;47279;52.426;10.488;2022-09-09T12:23:44;1.13;;;0.95;;
61413;SDS011;47279;52.426;10.488;2022-09-09T12:29:08;1.27;;;0.95;;
61413;SDS011;47279;52.426;10.488;2022-09-09T12:34:09;1.05;;;0.95;;
61413;SDS011;47279;52.426;10.488;2022-09-09T12:36:36;2.10;;;1.10;;
61413;SDS011;47279;52.426;10.488;2022-09-09T12:39:18;1.45;;;0.90;;
61413;SDS011;47279;52.426;10.488;2022-09-09T12:41:51;1.08;;;0.90;;
61413;SDS011;47279;52.426;10.488;2022-09-09T12:44:21;1.52;;;1.05;;
61413;SDS011;47279;52.426;10.488;2022-09-09T12:46:48;0.93;;;0.80;;
61413;SDS011;47279;52.426;10.488;2022-09-09T12:51:52;1.30;;;1.00;;
61413;SDS011;47279;52.426;10.488;2022-09-09T12:54:18;1.17;;;1.05;;
61413;SDS011;47279;52.426;10.488;2022-09-09T12:56:45;1.15;;;1.10;;
61413;SDS011;47279;52.426;10.488;2022-09-09T12:59:21;0.85;;;0.85;;
61413;SDS011;47279;52.426;10.488;2022-09-09T13:01:54;1.27;;;0.98;;
61413;SDS011;47279;52.426;10.488;2022-09-09T13:04:21;0.98;;;0.80;;
61413;SDS011;47279;52.426;10.488;2022-09-09T13:06:47;1.33;;;0.80;;
61413;SDS011;47279;52.426;10.488;2022-09-09T13:09:14;0.70;;;0.70;;
61413;SDS011;47279;52.426;10.488;2022-09-09T13:11:44;0.65;;;0.65;;
61413;SDS011;47279;52.426;10.488;2022-09-09T13:14:19;0.85;;;0.77;;
61413;SDS011;47279;52.426;10.488;2022-09-09T13:16:54;0.77;;;0.70;;
61413;SDS011;47279;52.426;10.488;2022-09-09T13:19:21;0.77;;;0.77;;
61413;SDS011;47279;52.426;10.488;2022-09-09T13:21:47;1.50;;;1.10;;
61413;SDS011;47279;52.426;10.488;2022-09-09T13:24:24;1.13;;;0.93;;
61413;SDS011;47279;52.426;10.488;2022-09-09T13:26:57;1.20;;;1.10;;
61413;SDS011;47279;52.426;10.488;2022-09-09T13:29:23;1.55;;;1.13;;
61413;SDS011;47279;52.426;10.488;2022-09-09T13:31:50;1.00;;;0.90;;
61413;SDS011;47279;52.426;10.488;2022-09-09T13:34:28;0.95;;;0.80;;
61413;SDS011;47279;52.426;10.488;2022-09-09T13:36:56;1.30;;;0.90;;
61413;SDS011;47279;52.426;10.488;2022-09-09T13:39:24;0.80;;;0.80;;
61413;SDS011;47279;52.426;10.488;2022-09-09T13:41:50;1.20;;;0.70;;
61413;SDS011;47279;52.426;10.488;2022-09-09T13:44:22;0.98;;;0.70;;
61413;SDS011;47279;52.426;10.488;2022-09-09T13:46:59;1.45;;;0.80;;
61413;SDS011;47279;52.426;10.488;2022-09-09T13:49:27;0.75;;;0.73;;
61413;SDS011;47279;52.426;10.488;2022-09-09T13:52:02;1.02;;;0.90;;
61413;SDS011;47279;52.426;10.488;2022-09-09T13:54:28;0.80;;;0.80;;
61413;SDS011;47279;52.426;10.488;2022-09-09T13:56:55;0.80;;;0.80;;
61413;SDS011;47279;52.426;10.488;2022-09-09T13:59:21;0.98;;;0.90;;
61413;SDS011;47279;52.426;10.488;2022-09-09T14:01:49;1.05;;;0.80;;
61413;SDS011;47279;52.426;10.488;2022-09-09T14:04:17;0.60;;;0.60;;
61413;SDS011;47279;52.426;10.488;2022-09-09T14:06:43;1.27;;;0.80;;
61413;SDS011;47279;52.426;10.488;2022-09-09T14:09:10;1.33;;;1.08;;
61413;SDS011;47279;52.426;10.488;2022-09-09T14:11:37;0.80;;;0.70;;
61413;SDS011;47279;52.426;10.488;2022-09-09T14:14:03;0.63;;;0.63;;
61413;SDS011;47279;52.426;10.488;2022-09-09T14:16:30;0.82;;;0.80;;
61413;SDS011;47279;52.426;10.488;2022-09-09T14:18:56;1.00;;;0.88;;
61413;SDS011;47279;52.426;10.488;2022-09-09T14:21:22;0.80;;;0.77;;
61413;SDS011;47279;52.426;10.488;2022-09-09T14:23:48;0.80;;;0.80;;
61413;SDS011;47279;52.426;10.488;2022-09-09T14:26:14;0.80;;;0.80;;
61413;SDS011;47279;52.426;10.488;2022-09-09T14:28:40;0.88;;;0.80;;
61413;SDS011;47279;52.426;10.488;2022-09-09T14:31:06;0.85;;;0.77;;
61413;SDS011;47279;52.426;10.488;2022-09-09T14:33:32;1.67;;;0.85;;
61413;SDS011;47279;52.426;10.488;2022-09-09T14:35:59;1.40;;;0.90;;
61413;SDS011;47279;52.426;10.488;2022-09-09T14:38:25;0.70;;;0.70;;
61413;SDS011;47279;52.426;10.488;2022-09-09T14:40:54;0.80;;;0.80;;
61413;SDS011;47279;52.426;10.488;2022-09-09T14:43:21;0.68;;;0.68;;
61413;SDS011;47279;52.426;10.488;2022-09-09T14:45:46;1.20;;;1.10;;
61413;SDS011;47279;52.426;10.488;2022-09-09T14:48:19;0.90;;;0.90;;
61413;SDS011;47279;52.426;10.488;2022-09-09T14:50:44;1.40;;;0.90;;
61413;SDS011;47279;52.426;10.488;2022-09-09T14:53:10;0.88;;;0.77;;
61413;SDS011;47279;52.426;10.488;2022-09-09T14:55:37;1.05;;;0.95;;
61413;SDS011;47279;52.426;10.488;2022-09-09T14:58:03;1.25;;;0.95;;
61413;SDS011;47279;52.426;10.488;2022-09-09T15:00:31;0.85;;;0.85;;
61413;SDS011;47279;52.426;10.488;2022-09-09T15:02:57;0.80;;;0.80;;
61413;SDS011;47279;52.426;10.488;2022-09-09T15:05:23;1.13;;;0.93;;
61413;SDS011;47279;52.426;10.488;2022-09-09T15:07:49;0.80;;;0.77;;
61413;SDS011;47279;52.426;10.488;2022-09-09T15:10:15;0.80;;;0.80;;
61413;SDS011;47279;52.426;10.488;2022-09-09T15:12:42;0.70;;;0.68;;
61413;SDS011;47279;52.426;10.488;2022-09-09T15:15:08;1.02;;;0.90;;
61413;SDS011;47279;52.426;10.488;2022-09-09T15:17:34;0.90;;;0.90;;
61413;SDS011;47279;52.426;10.488;2022-09-09T15:20:01;0.75;;;0.70;;
61413;SDS011;47279;52.426;10.488;2022-09-09T15:22:27;0.82;;;0.73;;
61413;SDS011;47279;52.426;10.488;2022-09-09T15:24:53;0.82;;;0.82;;
61413;SDS011;47279;52.426;10.488;2022-09-09T15:27:19;1.20;;;0.80;;
61413;SDS011;47279;52.426;10.488;2022-09-09T15:29:45;0.88;;;0.88;;
61413;SDS011;47279;52.426;10.488;2022-09-09T15:32:12;0.98;;;0.98;;
61413;SDS011;47279;52.426;10.488;2022-09-09T15:34:38;0.75;;;0.75;;
61413;SDS011;47279;52.426;10.488;2022-09-09T15:37:04;0.82;;;0.75;;
61413;SDS011;47279;52.426;10.488;2022-09-09T15:39:31;1.42;;;0.90;;
61413;SDS011;47279;52.426;10.488;2022-09-09T15:41:57;0.85;;;0.70;;
61413;SDS011;47279;52.426;10.488;2022-09-09T15:44:26;0.60;;;0.60;;
61413;SDS011;47279;52.426;10.488;2022-09-09T15:46:52;0.68;;;0.68;;
61413;SDS011;47279;52.426;10.488;2022-09-09T15:51:45;1.00;;;0.73;;
61413;SDS011;47279;52.426;10.488;2022-09-09T15:54:12;0.65;;;0.65;;
61413;SDS011;47279;52.426;10.488;2022-09-09T15:56:38;0.70;;;0.63;;
61413;SDS011;47279;52.426;10.488;2022-09-09T15:59:04;0.93;;;0.80;;
61413;SDS011;47279;52.426;10.488;2022-09-09T16:01:31;0.70;;;0.70;;
61413;SDS011;47279;52.426;10.488;2022-09-09T16:03:58;1.05;;;0.90;;
61413;SDS011;47279;52.426;10.488;2022-09-09T16:06:25;0.68;;;0.68;;
61413;SDS011;47279;52.426;10.488;2022-09-09T16:08:53;1.40;;;0.70;;
61413;SDS011;47279;52.426;10.488;2022-09-09T16:11:23;0.90;;;0.70;;
61413;SDS011;47279;52.426;10.488;2022-09-09T16:13:50;0.70;;;0.70;;
61413;SDS011;47279;52.426;10.488;2022-09-09T16:16:17;0.70;;;0.70;;
61413;SDS011;47279;52.426;10.488;2022-09-09T16:18:47;0.88;;;0.80;;
61413;SDS011;47279;52.426;10.488;2022-09-09T16:21:15;0.70;;;0.60;;
61413;SDS011;47279;52.426;10.488;2022-09-09T16:23:41;0.90;;;0.80;;
61413;SDS011;47279;52.426;10.488;2022-09-09T16:26:08;0.80;;;0.65;;
61413;SDS011;47279;52.426;10.488;2022-09-09T16:28:36;0.73;;;0.73;;
61413;SDS011;47279;52.426;10.488;2022-09-09T16:31:05;0.70;;;0.70;;
61413;SDS011;47279;52.426;10.488;2022-09-09T16:33:31;0.70;;;0.70;;
61413;SDS011;47279;52.426;10.488;2022-09-09T16:35:57;1.00;;;0.63;;
61413;SDS011;47279;52.426;10.488;2022-09-09T16:38:23;1.02;;;0.70;;
61413;SDS011;47279;52.426;10.488;2022-09-09T16:40:49;0.70;;;0.70;;
61413;SDS011;47279;52.426;10.488;2022-09-09T16:43:15;2.47;;;1.85;;
61413;SDS011;47279;52.426;10.488;2022-09-09T16:45:44;2.63;;;2.05;;
61413;SDS011;47279;52.426;10.488;2022-09-09T16:48:11;6.13;;;4.70;;